sensor_id;sensor_type;location;lat;lon;timestamp;P1;durP1;ratioP1;P2;durP2;ratioP2
73869;SDS011;64924;42.140;24.762;2022-12-20T00:02:20;19.85;;;9.65;;
73869;SDS011;64924;42.140;24.762;2022-12-20T00:04:46;21.25;;;11.05;;
73869;SDS011;64924;42.140;24.762;2022-12-20T00:07:11;20.23;;;10.73;;
73869;SDS011;64924;42.140;24.762;2022-12-20T00:09:37;23.30;;;11.25;;
73869;SDS011;64924;42.140;24.762;2022-12-20T00:12:02;23.33;;;10.98;;
73869;SDS011;64924;42.140;24.762;2022-12-20T00:14:28;22.73;;;11.05;;
73869;SDS011;64924;42.140;24.762;2022-12-20T00:16:53;25.63;;;11.88;;
73869;SDS011;64924;42.140;24.762;2022-12-20T00:19:19;22.52;;;11.02;;
73869;SDS011;64924;42.140;24.762;2022-12-20T00:21:44;23.88;;;11.35;;
73869;SDS011;64924;42.140;24.762;2022-12-20T00:24:10;21.92;;;10.38;;
73869;SDS011;64924;42.140;24.762;2022-12-20T00:26:36;24.15;;;11.65;;
73869;SDS011;64924;42.140;24.762;2022-12-20T00:29:03;23.52;;;11.18;;
73869;SDS011;64924;42.140;24.762;2022-12-20T00:31:29;21.65;;;11.60;;
73869;SDS011;64924;42.140;24.762;2022-12-20T00:33:56;21.98;;;11.25;;
73869;SDS011;64924;42.140;24.762;2022-12-20T00:36:24;22.83;;;11.23;;
73869;SDS011;64924;42.140;24.762;2022-12-20T00:38:51;23.75;;;11.27;;
73869;SDS011;64924;42.140;24.762;2022-12-20T00:41:22;25.52;;;12.98;;
73869;SDS011;64924;42.140;24.762;2022-12-20T00:43:49;25.35;;;12.73;;
73869;SDS011;64924;42.140;24.762;2022-12-20T00:46:16;25.73;;;13.00;;
73869;SDS011;64924;42.140;24.762;2022-12-20T00:48:43;28.73;;;13.57;;
73869;SDS011;64924;42.140;24.762;2022-12-20T00:51:12;30.92;;;14.52;;
73869;SDS011;64924;42.140;24.762;2022-12-20T00:53:39;29.48;;;14.82;;
73869;SDS011;64924;42.140;24.762;2022-12-20T00:56:06;29.23;;;14.77;;
73869;SDS011;64924;42.140;24.762;2022-12-20T00:58:33;30.70;;;16.02;;
73869;SDS011;64924;42.140;24.762;2022-12-20T01:01:00;32.90;;;16.13;;
73869;SDS011;64924;42.140;24.762;2022-12-20T01:03:26;29.10;;;12.70;;
73869;SDS011;64924;42.140;24.762;2022-12-20T01:05:53;34.83;;;16.05;;
73869;SDS011;64924;42.140;24.762;2022-12-20T01:08:21;34.38;;;16.20;;
73869;SDS011;64924;42.140;24.762;2022-12-20T01:11:04;30.27;;;15.65;;
73869;SDS011;64924;42.140;24.762;2022-12-20T01:13:32;32.33;;;15.70;;
73869;SDS011;64924;42.140;24.762;2022-12-20T01:16:12;36.47;;;16.05;;
73869;SDS011;64924;42.140;24.762;2022-12-20T01:18:38;29.65;;;15.18;;
73869;SDS011;64924;42.140;24.762;2022-12-20T01:21:07;27.38;;;13.18;;
73869;SDS011;64924;42.140;24.762;2022-12-20T01:23:35;34.15;;;14.68;;
73869;SDS011;64924;42.140;24.762;2022-12-20T01:26:01;27.00;;;13.77;;
73869;SDS011;64924;42.140;24.762;2022-12-20T01:28:33;27.27;;;13.43;;
73869;SDS011;64924;42.140;24.762;2022-12-20T01:30:59;25.33;;;12.07;;
73869;SDS011;64924;42.140;24.762;2022-12-20T01:33:25;30.40;;;12.45;;
73869;SDS011;64924;42.140;24.762;2022-12-20T01:35:58;25.15;;;12.48;;
73869;SDS011;64924;42.140;24.762;2022-12-20T01:38:26;27.23;;;12.63;;
73869;SDS011;64924;42.140;24.762;2022-12-20T01:40:52;30.58;;;14.25;;
73869;SDS011;64924;42.140;24.762;2022-12-20T01:43:19;25.05;;;12.82;;
73869;SDS011;64924;42.140;24.762;2022-12-20T01:45:46;27.73;;;13.25;;
73869;SDS011;64924;42.140;24.762;2022-12-20T01:48:12;26.23;;;12.80;;
73869;SDS011;64924;42.140;24.762;2022-12-20T01:50:40;28.00;;;13.73;;
73869;SDS011;64924;42.140;24.762;2022-12-20T01:53:06;29.25;;;13.85;;
73869;SDS011;64924;42.140;24.762;2022-12-20T01:55:31;30.50;;;14.27;;
73869;SDS011;64924;42.140;24.762;2022-12-20T01:58:07;30.60;;;13.02;;
73869;SDS011;64924;42.140;24.762;2022-12-20T02:00:37;30.25;;;13.35;;
73869;SDS011;64924;42.140;24.762;2022-12-20T02:03:04;26.75;;;13.90;;
73869;SDS011;64924;42.140;24.762;2022-12-20T02:05:33;25.20;;;13.07;;
73869;SDS011;64924;42.140;24.762;2022-12-20T02:08:00;30.90;;;13.35;;
73869;SDS011;64924;42.140;24.762;2022-12-20T02:10:28;28.75;;;14.05;;
73869;SDS011;64924;42.140;24.762;2022-12-20T02:13:23;25.80;;;12.88;;
73869;SDS011;64924;42.140;24.762;2022-12-20T02:16:02;25.60;;;12.50;;
73869;SDS011;64924;42.140;24.762;2022-12-20T02:18:33;26.00;;;13.45;;
73869;SDS011;64924;42.140;24.762;2022-12-20T02:21:13;29.77;;;14.23;;
73869;SDS011;64924;42.140;24.762;2022-12-20T02:34:48;26.52;;;14.00;;
73869;SDS011;64924;42.140;24.762;2022-12-20T02:37:15;26.40;;;13.32;;
73869;SDS011;64924;42.140;24.762;2022-12-20T02:39:40;27.48;;;13.35;;
73869;SDS011;64924;42.140;24.762;2022-12-20T02:42:10;28.38;;;13.93;;
73869;SDS011;64924;42.140;24.762;2022-12-20T02:44:41;27.63;;;13.77;;
73869;SDS011;64924;42.140;24.762;2022-12-20T02:47:31;27.92;;;13.40;;
73869;SDS011;64924;42.140;24.762;2022-12-20T02:50:00;38.88;;;13.45;;
73869;SDS011;64924;42.140;24.762;2022-12-20T02:52:28;30.10;;;14.27;;
73869;SDS011;64924;42.140;24.762;2022-12-20T02:54:56;30.85;;;13.45;;
73869;SDS011;64924;42.140;24.762;2022-12-20T02:57:47;27.48;;;13.40;;
73869;SDS011;64924;42.140;24.762;2022-12-20T03:00:17;27.02;;;14.45;;
73869;SDS011;64924;42.140;24.762;2022-12-20T03:02:44;26.00;;;13.38;;
73869;SDS011;64924;42.140;24.762;2022-12-20T03:05:29;30.40;;;13.32;;
73869;SDS011;64924;42.140;24.762;2022-12-20T03:07:58;29.35;;;13.45;;
73869;SDS011;64924;42.140;24.762;2022-12-20T03:10:24;30.50;;;13.02;;
73869;SDS011;64924;42.140;24.762;2022-12-20T03:12:50;34.63;;;14.85;;
73869;SDS011;64924;42.140;24.762;2022-12-20T03:15:16;31.77;;;14.32;;
73869;SDS011;64924;42.140;24.762;2022-12-20T03:17:41;32.40;;;13.88;;
73869;SDS011;64924;42.140;24.762;2022-12-20T03:20:07;28.90;;;14.23;;
73869;SDS011;64924;42.140;24.762;2022-12-20T03:22:35;29.25;;;14.00;;
73869;SDS011;64924;42.140;24.762;2022-12-20T03:25:01;30.92;;;14.52;;
73869;SDS011;64924;42.140;24.762;2022-12-20T03:27:27;32.53;;;14.15;;
73869;SDS011;64924;42.140;24.762;2022-12-20T03:29:53;33.40;;;14.90;;
73869;SDS011;64924;42.140;24.762;2022-12-20T03:32:19;29.63;;;14.88;;
73869;SDS011;64924;42.140;24.762;2022-12-20T03:34:44;30.40;;;16.73;;
73869;SDS011;64924;42.140;24.762;2022-12-20T03:37:10;30.98;;;14.20;;
73869;SDS011;64924;42.140;24.762;2022-12-20T03:39:36;32.08;;;15.20;;
73869;SDS011;64924;42.140;24.762;2022-12-20T03:42:01;31.45;;;15.23;;
73869;SDS011;64924;42.140;24.762;2022-12-20T03:44:27;30.95;;;15.15;;
73869;SDS011;64924;42.140;24.762;2022-12-20T03:46:52;35.25;;;16.23;;
73869;SDS011;64924;42.140;24.762;2022-12-20T03:49:18;30.80;;;15.30;;
73869;SDS011;64924;42.140;24.762;2022-12-20T03:51:43;32.95;;;15.50;;
73869;SDS011;64924;42.140;24.762;2022-12-20T03:54:09;31.13;;;15.07;;
73869;SDS011;64924;42.140;24.762;2022-12-20T03:56:34;30.92;;;14.63;;
73869;SDS011;64924;42.140;24.762;2022-12-20T03:58:59;28.38;;;14.77;;
73869;SDS011;64924;42.140;24.762;2022-12-20T04:01:26;31.67;;;15.93;;
73869;SDS011;64924;42.140;24.762;2022-12-20T04:03:53;30.58;;;15.07;;
73869;SDS011;64924;42.140;24.762;2022-12-20T04:06:19;34.15;;;16.40;;
73869;SDS011;64924;42.140;24.762;2022-12-20T04:08:45;37.00;;;16.98;;
73869;SDS011;64924;42.140;24.762;2022-12-20T04:11:11;37.05;;;18.08;;
73869;SDS011;64924;42.140;24.762;2022-12-20T04:13:40;44.88;;;21.45;;
73869;SDS011;64924;42.140;24.762;2022-12-20T04:16:06;42.83;;;20.10;;
73869;SDS011;64924;42.140;24.762;2022-12-20T04:18:32;49.83;;;20.73;;
73869;SDS011;64924;42.140;24.762;2022-12-20T04:21:00;42.38;;;19.42;;
73869;SDS011;64924;42.140;24.762;2022-12-20T04:23:27;37.83;;;18.15;;
73869;SDS011;64924;42.140;24.762;2022-12-20T04:25:52;36.70;;;17.05;;
73869;SDS011;64924;42.140;24.762;2022-12-20T04:28:17;32.05;;;16.88;;
73869;SDS011;64924;42.140;24.762;2022-12-20T04:30:43;36.60;;;16.13;;
73869;SDS011;64924;42.140;24.762;2022-12-20T04:33:08;32.10;;;15.55;;
73869;SDS011;64924;42.140;24.762;2022-12-20T04:35:35;31.08;;;14.45;;
73869;SDS011;64924;42.140;24.762;2022-12-20T04:38:01;30.45;;;14.82;;
73869;SDS011;64924;42.140;24.762;2022-12-20T04:40:27;37.58;;;15.48;;
73869;SDS011;64924;42.140;24.762;2022-12-20T04:42:52;32.05;;;15.05;;
73869;SDS011;64924;42.140;24.762;2022-12-20T04:45:18;29.20;;;14.40;;
73869;SDS011;64924;42.140;24.762;2022-12-20T04:47:43;32.35;;;13.85;;
73869;SDS011;64924;42.140;24.762;2022-12-20T04:50:09;38.15;;;17.23;;
73869;SDS011;64924;42.140;24.762;2022-12-20T04:52:34;37.97;;;17.33;;
73869;SDS011;64924;42.140;24.762;2022-12-20T04:55:18;31.38;;;15.20;;
73869;SDS011;64924;42.140;24.762;2022-12-20T04:57:44;35.30;;;16.48;;
73869;SDS011;64924;42.140;24.762;2022-12-20T05:00:10;33.92;;;16.13;;
73869;SDS011;64924;42.140;24.762;2022-12-20T05:02:35;33.30;;;17.38;;
73869;SDS011;64924;42.140;24.762;2022-12-20T05:05:01;32.22;;;16.25;;
73869;SDS011;64924;42.140;24.762;2022-12-20T05:07:27;39.33;;;18.90;;
73869;SDS011;64924;42.140;24.762;2022-12-20T05:09:52;34.67;;;17.45;;
73869;SDS011;64924;42.140;24.762;2022-12-20T05:12:18;32.67;;;16.50;;
73869;SDS011;64924;42.140;24.762;2022-12-20T05:14:43;35.40;;;16.92;;
73869;SDS011;64924;42.140;24.762;2022-12-20T05:17:09;42.00;;;18.42;;
73869;SDS011;64924;42.140;24.762;2022-12-20T05:19:34;42.90;;;16.35;;
73869;SDS011;64924;42.140;24.762;2022-12-20T05:21:59;50.33;;;18.33;;
73869;SDS011;64924;42.140;24.762;2022-12-20T05:24:43;34.75;;;16.20;;
73869;SDS011;64924;42.140;24.762;2022-12-20T05:27:27;40.55;;;17.00;;
73869;SDS011;64924;42.140;24.762;2022-12-20T05:29:54;55.88;;;23.20;;
73869;SDS011;64924;42.140;24.762;2022-12-20T05:32:20;45.20;;;21.90;;
73869;SDS011;64924;42.140;24.762;2022-12-20T05:34:45;45.10;;;17.27;;
73869;SDS011;64924;42.140;24.762;2022-12-20T05:37:11;43.95;;;17.88;;
73869;SDS011;64924;42.140;24.762;2022-12-20T05:39:36;35.85;;;17.02;;
73869;SDS011;64924;42.140;24.762;2022-12-20T05:42:02;45.20;;;19.80;;
73869;SDS011;64924;42.140;24.762;2022-12-20T05:44:27;46.95;;;19.15;;
73869;SDS011;64924;42.140;24.762;2022-12-20T05:46:53;39.58;;;17.77;;
73869;SDS011;64924;42.140;24.762;2022-12-20T05:49:18;40.72;;;17.52;;
73869;SDS011;64924;42.140;24.762;2022-12-20T05:51:44;42.33;;;18.35;;
73869;SDS011;64924;42.140;24.762;2022-12-20T05:54:09;53.20;;;19.25;;
73869;SDS011;64924;42.140;24.762;2022-12-20T05:56:35;41.97;;;18.13;;
73869;SDS011;64924;42.140;24.762;2022-12-20T05:59:00;42.78;;;18.35;;
73869;SDS011;64924;42.140;24.762;2022-12-20T06:01:26;49.30;;;21.08;;
73869;SDS011;64924;42.140;24.762;2022-12-20T06:03:51;46.85;;;19.60;;
73869;SDS011;64924;42.140;24.762;2022-12-20T06:06:17;50.22;;;21.33;;
73869;SDS011;64924;42.140;24.762;2022-12-20T06:08:42;49.72;;;20.65;;
73869;SDS011;64924;42.140;24.762;2022-12-20T06:11:08;50.30;;;22.67;;
73869;SDS011;64924;42.140;24.762;2022-12-20T06:13:34;45.13;;;22.23;;
73869;SDS011;64924;42.140;24.762;2022-12-20T06:16:00;63.97;;;22.40;;
73869;SDS011;64924;42.140;24.762;2022-12-20T06:18:25;43.53;;;22.73;;
73869;SDS011;64924;42.140;24.762;2022-12-20T06:20:51;41.00;;;20.67;;
73869;SDS011;64924;42.140;24.762;2022-12-20T06:23:18;46.40;;;23.20;;
73869;SDS011;64924;42.140;24.762;2022-12-20T06:25:44;59.53;;;27.35;;
73869;SDS011;64924;42.140;24.762;2022-12-20T06:28:10;93.50;;;45.50;;
73869;SDS011;64924;42.140;24.762;2022-12-20T06:30:36;87.68;;;42.08;;
73869;SDS011;64924;42.140;24.762;2022-12-20T06:33:01;81.65;;;36.45;;
73869;SDS011;64924;42.140;24.762;2022-12-20T06:35:27;60.92;;;29.67;;
73869;SDS011;64924;42.140;24.762;2022-12-20T06:37:53;63.88;;;25.75;;
73869;SDS011;64924;42.140;24.762;2022-12-20T06:40:19;52.05;;;25.20;;
73869;SDS011;64924;42.140;24.762;2022-12-20T06:42:45;58.15;;;25.42;;
73869;SDS011;64924;42.140;24.762;2022-12-20T06:45:10;53.92;;;24.95;;
73869;SDS011;64924;42.140;24.762;2022-12-20T06:47:36;50.17;;;23.83;;
73869;SDS011;64924;42.140;24.762;2022-12-20T06:50:02;48.30;;;24.48;;
73869;SDS011;64924;42.140;24.762;2022-12-20T06:52:29;42.40;;;22.90;;
73869;SDS011;64924;42.140;24.762;2022-12-20T06:54:55;41.22;;;21.73;;
73869;SDS011;64924;42.140;24.762;2022-12-20T06:57:20;40.33;;;20.35;;
73869;SDS011;64924;42.140;24.762;2022-12-20T06:59:46;40.05;;;21.02;;
73869;SDS011;64924;42.140;24.762;2022-12-20T07:02:11;36.92;;;20.33;;
73869;SDS011;64924;42.140;24.762;2022-12-20T07:04:37;38.58;;;20.13;;
73869;SDS011;64924;42.140;24.762;2022-12-20T07:07:03;33.60;;;18.88;;
73869;SDS011;64924;42.140;24.762;2022-12-20T07:09:29;37.42;;;20.13;;
73869;SDS011;64924;42.140;24.762;2022-12-20T07:11:55;41.45;;;19.98;;
73869;SDS011;64924;42.140;24.762;2022-12-20T07:14:21;36.20;;;19.38;;
73869;SDS011;64924;42.140;24.762;2022-12-20T07:16:47;37.15;;;19.27;;
73869;SDS011;64924;42.140;24.762;2022-12-20T07:19:14;42.95;;;19.30;;
73869;SDS011;64924;42.140;24.762;2022-12-20T07:21:40;34.58;;;17.65;;
73869;SDS011;64924;42.140;24.762;2022-12-20T07:24:06;33.03;;;19.20;;
73869;SDS011;64924;42.140;24.762;2022-12-20T07:26:32;37.47;;;19.42;;
73869;SDS011;64924;42.140;24.762;2022-12-20T07:28:58;41.08;;;19.67;;
73869;SDS011;64924;42.140;24.762;2022-12-20T07:31:23;32.63;;;19.40;;
73869;SDS011;64924;42.140;24.762;2022-12-20T07:33:49;29.52;;;16.73;;
73869;SDS011;64924;42.140;24.762;2022-12-20T07:36:14;30.23;;;16.48;;
73869;SDS011;64924;42.140;24.762;2022-12-20T07:38:40;35.03;;;19.23;;
73869;SDS011;64924;42.140;24.762;2022-12-20T07:41:06;31.08;;;17.15;;
73869;SDS011;64924;42.140;24.762;2022-12-20T07:46:02;36.10;;;16.70;;
73869;SDS011;64924;42.140;24.762;2022-12-20T07:48:29;37.20;;;17.20;;
73869;SDS011;64924;42.140;24.762;2022-12-20T07:50:55;35.83;;;15.48;;
73869;SDS011;64924;42.140;24.762;2022-12-20T07:53:25;28.75;;;15.80;;
73869;SDS011;64924;42.140;24.762;2022-12-20T07:55:53;26.20;;;15.57;;
73869;SDS011;64924;42.140;24.762;2022-12-20T07:58:19;30.88;;;17.48;;
73869;SDS011;64924;42.140;24.762;2022-12-20T08:00:46;31.50;;;17.13;;
73869;SDS011;64924;42.140;24.762;2022-12-20T08:03:22;31.27;;;17.55;;
73869;SDS011;64924;42.140;24.762;2022-12-20T08:05:56;31.02;;;17.30;;
73869;SDS011;64924;42.140;24.762;2022-12-20T08:08:24;27.55;;;16.00;;
73869;SDS011;64924;42.140;24.762;2022-12-20T08:10:50;31.10;;;17.05;;
73869;SDS011;64924;42.140;24.762;2022-12-20T08:13:16;30.38;;;18.15;;
73869;SDS011;64924;42.140;24.762;2022-12-20T08:15:42;32.97;;;17.92;;
73869;SDS011;64924;42.140;24.762;2022-12-20T08:18:08;34.70;;;18.30;;
73869;SDS011;64924;42.140;24.762;2022-12-20T08:20:33;231.57;;;32.17;;
73869;SDS011;64924;42.140;24.762;2022-12-20T08:22:59;68.82;;;20.45;;
73869;SDS011;64924;42.140;24.762;2022-12-20T08:25:27;49.28;;;19.50;;
73869;SDS011;64924;42.140;24.762;2022-12-20T08:27:52;102.18;;;26.05;;
73869;SDS011;64924;42.140;24.762;2022-12-20T08:30:18;117.45;;;22.88;;
73869;SDS011;64924;42.140;24.762;2022-12-20T08:32:44;53.22;;;20.33;;
73869;SDS011;64924;42.140;24.762;2022-12-20T08:35:09;110.63;;;26.30;;
73869;SDS011;64924;42.140;24.762;2022-12-20T08:37:35;73.93;;;22.15;;
73869;SDS011;64924;42.140;24.762;2022-12-20T08:40:00;60.92;;;19.50;;
73869;SDS011;64924;42.140;24.762;2022-12-20T08:42:26;29.50;;;15.63;;
73869;SDS011;64924;42.140;24.762;2022-12-20T08:44:52;100.45;;;21.27;;
73869;SDS011;64924;42.140;24.762;2022-12-20T08:47:17;204.23;;;31.52;;
73869;SDS011;64924;42.140;24.762;2022-12-20T08:49:43;65.28;;;20.75;;
73869;SDS011;64924;42.140;24.762;2022-12-20T08:52:08;259.80;;;35.00;;
73869;SDS011;64924;42.140;24.762;2022-12-20T08:54:34;110.95;;;19.65;;
73869;SDS011;64924;42.140;24.762;2022-12-20T08:56:59;74.55;;;19.02;;
73869;SDS011;64924;42.140;24.762;2022-12-20T08:59:26;38.35;;;16.88;;
73869;SDS011;64924;42.140;24.762;2022-12-20T09:01:51;36.28;;;17.20;;
73869;SDS011;64924;42.140;24.762;2022-12-20T09:04:19;32.60;;;16.75;;
73869;SDS011;64924;42.140;24.762;2022-12-20T09:06:45;31.33;;;17.85;;
73869;SDS011;64924;42.140;24.762;2022-12-20T09:09:11;37.60;;;16.45;;
73869;SDS011;64924;42.140;24.762;2022-12-20T09:11:36;34.78;;;17.42;;
73869;SDS011;64924;42.140;24.762;2022-12-20T09:14:01;32.65;;;17.13;;
73869;SDS011;64924;42.140;24.762;2022-12-20T09:16:28;30.50;;;17.52;;
73869;SDS011;64924;42.140;24.762;2022-12-20T09:18:56;28.20;;;16.35;;
73869;SDS011;64924;42.140;24.762;2022-12-20T09:21:23;32.70;;;16.85;;
73869;SDS011;64924;42.140;24.762;2022-12-20T09:23:49;33.63;;;18.08;;
73869;SDS011;64924;42.140;24.762;2022-12-20T09:26:16;35.90;;;17.13;;
73869;SDS011;64924;42.140;24.762;2022-12-20T09:28:42;29.65;;;16.35;;
73869;SDS011;64924;42.140;24.762;2022-12-20T09:31:13;27.08;;;14.70;;
73869;SDS011;64924;42.140;24.762;2022-12-20T09:33:40;30.00;;;16.25;;
73869;SDS011;64924;42.140;24.762;2022-12-20T09:36:06;35.25;;;16.40;;
73869;SDS011;64924;42.140;24.762;2022-12-20T09:41:02;25.25;;;13.73;;
73869;SDS011;64924;42.140;24.762;2022-12-20T09:43:29;27.88;;;14.93;;
73869;SDS011;64924;42.140;24.762;2022-12-20T09:45:57;38.92;;;21.55;;
73869;SDS011;64924;42.140;24.762;2022-12-20T09:48:29;23.52;;;15.77;;
73869;SDS011;64924;42.140;24.762;2022-12-20T09:53:49;29.83;;;16.30;;
73869;SDS011;64924;42.140;24.762;2022-12-20T09:59:22;24.70;;;12.40;;
73869;SDS011;64924;42.140;24.762;2022-12-20T10:01:48;78.40;;;21.48;;
73869;SDS011;64924;42.140;24.762;2022-12-20T10:12:47;266.05;;;33.35;;
73869;SDS011;64924;42.140;24.762;2022-12-20T10:15:42;129.52;;;20.60;;
73869;SDS011;64924;42.140;24.762;2022-12-20T10:18:17;374.10;;;46.05;;
73869;SDS011;64924;42.140;24.762;2022-12-20T10:24:18;126.70;;;22.85;;
73869;SDS011;64924;42.140;24.762;2022-12-20T10:26:21;250.30;;;31.20;;
73869;SDS011;64924;42.140;24.762;2022-12-20T10:28:47;212.60;;;30.73;;
73869;SDS011;64924;42.140;24.762;2022-12-20T10:31:13;495.35;;;61.97;;
73869;SDS011;64924;42.140;24.762;2022-12-20T10:33:40;335.58;;;47.55;;
73869;SDS011;64924;42.140;24.762;2022-12-20T10:38:55;472.25;;;58.97;;
73869;SDS011;64924;42.140;24.762;2022-12-20T10:46:21;450.75;;;50.60;;
73869;SDS011;64924;42.140;24.762;2022-12-20T10:48:47;66.78;;;14.82;;
73869;SDS011;64924;42.140;24.762;2022-12-20T10:51:16;24.65;;;12.40;;
73869;SDS011;64924;42.140;24.762;2022-12-20T10:53:55;26.60;;;12.45;;
73869;SDS011;64924;42.140;24.762;2022-12-20T10:59:34;68.88;;;16.88;;
73869;SDS011;64924;42.140;24.762;2022-12-20T11:01:43;34.35;;;13.95;;
73869;SDS011;64924;42.140;24.762;2022-12-20T11:06:52;76.45;;;15.63;;
73869;SDS011;64924;42.140;24.762;2022-12-20T11:09:28;101.25;;;19.98;;
73869;SDS011;64924;42.140;24.762;2022-12-20T11:12:02;72.07;;;17.15;;
73869;SDS011;64924;42.140;24.762;2022-12-20T11:14:38;90.07;;;18.58;;
73869;SDS011;64924;42.140;24.762;2022-12-20T11:17:16;39.15;;;12.85;;
73869;SDS011;64924;42.140;24.762;2022-12-20T11:22:16;24.05;;;13.85;;
73869;SDS011;64924;42.140;24.762;2022-12-20T11:27:55;28.58;;;12.35;;
73869;SDS011;64924;42.140;24.762;2022-12-20T11:33:21;20.15;;;12.05;;
73869;SDS011;64924;42.140;24.762;2022-12-20T11:38:41;34.33;;;16.55;;
73869;SDS011;64924;42.140;24.762;2022-12-20T11:58:24;21.92;;;11.52;;
73869;SDS011;64924;42.140;24.762;2022-12-20T12:00:35;22.17;;;11.57;;
73869;SDS011;64924;42.140;24.762;2022-12-20T12:03:08;28.20;;;12.90;;
73869;SDS011;64924;42.140;24.762;2022-12-20T12:05:49;22.63;;;13.13;;
73869;SDS011;64924;42.140;24.762;2022-12-20T12:08:22;22.17;;;13.48;;
73869;SDS011;64924;42.140;24.762;2022-12-20T12:10:57;26.17;;;13.88;;
73869;SDS011;64924;42.140;24.762;2022-12-20T12:13:27;22.33;;;13.27;;
73869;SDS011;64924;42.140;24.762;2022-12-20T12:16:02;27.85;;;13.90;;
73869;SDS011;64924;42.140;24.762;2022-12-20T12:18:33;21.35;;;12.00;;
73869;SDS011;64924;42.140;24.762;2022-12-20T12:26:26;20.42;;;11.95;;
73869;SDS011;64924;42.140;24.762;2022-12-20T12:28:54;21.60;;;11.80;;
73869;SDS011;64924;42.140;24.762;2022-12-20T12:32:09;21.08;;;11.70;;
73869;SDS011;64924;42.140;24.762;2022-12-20T12:42:17;22.92;;;12.50;;
73869;SDS011;64924;42.140;24.762;2022-12-20T12:47:20;25.95;;;13.93;;
73869;SDS011;64924;42.140;24.762;2022-12-20T12:49:53;25.33;;;13.38;;
73869;SDS011;64924;42.140;24.762;2022-12-20T12:52:28;26.60;;;13.80;;
73869;SDS011;64924;42.140;24.762;2022-12-20T12:54:59;23.58;;;12.02;;
73869;SDS011;64924;42.140;24.762;2022-12-20T12:57:24;23.58;;;13.90;;
73869;SDS011;64924;42.140;24.762;2022-12-20T12:59:50;21.67;;;13.45;;
73869;SDS011;64924;42.140;24.762;2022-12-20T13:10:55;28.70;;;15.02;;
73869;SDS011;64924;42.140;24.762;2022-12-20T13:17:49;24.63;;;12.95;;
73869;SDS011;64924;42.140;24.762;2022-12-20T13:20:26;22.88;;;13.27;;
73869;SDS011;64924;42.140;24.762;2022-12-20T13:31:33;26.92;;;14.90;;
73869;SDS011;64924;42.140;24.762;2022-12-20T13:36:28;27.55;;;13.90;;
73869;SDS011;64924;42.140;24.762;2022-12-20T13:39:03;28.35;;;13.40;;
73869;SDS011;64924;42.140;24.762;2022-12-20T13:42:05;26.55;;;13.05;;
73869;SDS011;64924;42.140;24.762;2022-12-20T13:44:39;24.45;;;12.50;;
73869;SDS011;64924;42.140;24.762;2022-12-20T13:49:37;25.67;;;11.70;;
73869;SDS011;64924;42.140;24.762;2022-12-20T13:54:42;27.50;;;11.88;;
73869;SDS011;64924;42.140;24.762;2022-12-20T13:57:18;22.50;;;10.65;;
73869;SDS011;64924;42.140;24.762;2022-12-20T13:59:56;19.90;;;11.45;;
73869;SDS011;64924;42.140;24.762;2022-12-20T14:02:28;23.52;;;12.00;;
73869;SDS011;64924;42.140;24.762;2022-12-20T14:04:58;26.30;;;13.18;;
73869;SDS011;64924;42.140;24.762;2022-12-20T14:07:27;28.98;;;12.93;;
73869;SDS011;64924;42.140;24.762;2022-12-20T14:09:57;24.98;;;12.77;;
73869;SDS011;64924;42.140;24.762;2022-12-20T14:12:24;25.35;;;11.57;;
73869;SDS011;64924;42.140;24.762;2022-12-20T14:14:50;25.63;;;13.02;;
73869;SDS011;64924;42.140;24.762;2022-12-20T14:17:26;26.17;;;14.02;;
73869;SDS011;64924;42.140;24.762;2022-12-20T14:23:25;22.90;;;13.23;;
73869;SDS011;64924;42.140;24.762;2022-12-20T14:26:04;27.63;;;13.65;;
73869;SDS011;64924;42.140;24.762;2022-12-20T14:28:42;31.65;;;14.13;;
73869;SDS011;64924;42.140;24.762;2022-12-20T14:31:29;37.85;;;14.15;;
73869;SDS011;64924;42.140;24.762;2022-12-20T14:36:36;28.30;;;13.65;;
73869;SDS011;64924;42.140;24.762;2022-12-20T14:39:20;27.05;;;14.07;;
73869;SDS011;64924;42.140;24.762;2022-12-20T14:44:23;28.00;;;15.23;;
73869;SDS011;64924;42.140;24.762;2022-12-20T14:46:51;39.95;;;22.60;;
73869;SDS011;64924;42.140;24.762;2022-12-20T14:49:25;44.13;;;21.20;;
73869;SDS011;64924;42.140;24.762;2022-12-20T14:59:58;64.32;;;35.03;;
73869;SDS011;64924;42.140;24.762;2022-12-20T15:08:13;35.30;;;18.02;;
73869;SDS011;64924;42.140;24.762;2022-12-20T15:10:57;34.28;;;14.77;;
73869;SDS011;64924;42.140;24.762;2022-12-20T15:13:31;31.92;;;16.20;;
73869;SDS011;64924;42.140;24.762;2022-12-20T15:15:59;34.65;;;16.30;;
73869;SDS011;64924;42.140;24.762;2022-12-20T15:18:26;38.63;;;19.02;;
73869;SDS011;64924;42.140;24.762;2022-12-20T15:20:58;38.97;;;19.00;;
73869;SDS011;64924;42.140;24.762;2022-12-20T15:23:27;39.63;;;20.85;;
73869;SDS011;64924;42.140;24.762;2022-12-20T15:25:53;43.50;;;21.08;;
73869;SDS011;64924;42.140;24.762;2022-12-20T15:28:22;42.20;;;21.98;;
73869;SDS011;64924;42.140;24.762;2022-12-20T15:30:50;46.05;;;21.85;;
73869;SDS011;64924;42.140;24.762;2022-12-20T15:33:26;40.70;;;19.05;;
73869;SDS011;64924;42.140;24.762;2022-12-20T15:35:55;35.60;;;18.30;;
73869;SDS011;64924;42.140;24.762;2022-12-20T15:38:22;43.65;;;20.92;;
73869;SDS011;64924;42.140;24.762;2022-12-20T15:40:50;63.42;;;28.42;;
73869;SDS011;64924;42.140;24.762;2022-12-20T15:43:26;54.10;;;22.88;;
73869;SDS011;64924;42.140;24.762;2022-12-20T15:45:53;57.42;;;21.88;;
73869;SDS011;64924;42.140;24.762;2022-12-20T15:48:20;57.78;;;27.25;;
73869;SDS011;64924;42.140;24.762;2022-12-20T15:50:54;90.90;;;40.72;;
73869;SDS011;64924;42.140;24.762;2022-12-20T15:53:26;85.60;;;38.53;;
73869;SDS011;64924;42.140;24.762;2022-12-20T15:55:56;83.80;;;37.55;;
73869;SDS011;64924;42.140;24.762;2022-12-20T15:58:23;71.13;;;31.90;;
73869;SDS011;64924;42.140;24.762;2022-12-20T16:00:49;153.10;;;52.40;;
73869;SDS011;64924;42.140;24.762;2022-12-20T16:03:22;76.22;;;35.38;;
73869;SDS011;64924;42.140;24.762;2022-12-20T16:05:50;62.83;;;28.38;;
73869;SDS011;64924;42.140;24.762;2022-12-20T16:08:15;59.55;;;30.17;;
73869;SDS011;64924;42.140;24.762;2022-12-20T16:10:45;73.32;;;30.77;;
73869;SDS011;64924;42.140;24.762;2022-12-20T16:13:13;66.38;;;30.33;;
73869;SDS011;64924;42.140;24.762;2022-12-20T16:15:40;72.95;;;28.52;;
73869;SDS011;64924;42.140;24.762;2022-12-20T16:18:06;65.32;;;30.20;;
73869;SDS011;64924;42.140;24.762;2022-12-20T16:20:32;58.72;;;29.05;;
73869;SDS011;64924;42.140;24.762;2022-12-20T16:22:57;61.95;;;31.15;;
73869;SDS011;64924;42.140;24.762;2022-12-20T16:25:25;70.63;;;31.67;;
73869;SDS011;64924;42.140;24.762;2022-12-20T16:27:55;66.72;;;34.30;;
73869;SDS011;64924;42.140;24.762;2022-12-20T16:30:21;64.20;;;31.27;;
73869;SDS011;64924;42.140;24.762;2022-12-20T16:32:47;59.70;;;28.73;;
73869;SDS011;64924;42.140;24.762;2022-12-20T16:35:21;52.05;;;28.52;;
73869;SDS011;64924;42.140;24.762;2022-12-20T16:37:49;56.55;;;31.45;;
73869;SDS011;64924;42.140;24.762;2022-12-20T16:40:14;59.03;;;31.60;;